Flight Track Log - Related Links

Times and Time Zones

All times are in EDT time to prevent confusion due to time zone crossing. See the EGF2882 flight status page for this flight to view local times or setup timezone preferences in your user account.

Time Position Orientation Groundspeed Altitude Reporting Facility
EDT Latitude Longitude Course Direction KTS MPH feet Rate Location/Type
Sat 08:50:32 AM 38.9938 -84.6667 18° North  Level FlightAware Approximate
Sat 08:50:40 AM 39.0333 -84.6500 198° South 166 191 1,300  Level Cincinnati TRACON
Sat 08:55:40 AM 38.7206 -84.7786 213° Southwest 298 343 11,500 1,967 Climbing Indianapolis Center
Sat 08:56:40 AM 38.6386 -84.8464 214° Southwest 314 361 13,100 1,750 Climbing Indianapolis Center
Sat 08:57:40 AM 38.5564 -84.9167 227° Southwest 340 391 15,000 1,800 Climbing Indianapolis Center
Sat 08:58:40 AM 38.4908 -85.0058 241° Southwest 340 391 16,700 1,500 Climbing Indianapolis Center
Sat 08:59:40 AM 38.4436 -85.1136 238° Southwest 353 406 18,000 1,250 Climbing Indianapolis Center
Sat 09:00:40 AM 38.3983 -85.2053 241° Southwest 353 406 19,200 1,350 Climbing Indianapolis Center
Sat 09:01:40 AM 38.3531 -85.3103 238° Southwest 348 400 20,700 1,500 Climbing Indianapolis Center
Sat 09:02:40 AM 38.2972 -85.4253 238° Southwest 360 414 22,200 1,450 Climbing Indianapolis Center
Sat 09:03:40 AM 38.2433 -85.5350 238° Southwest 366 421 23,600 1,450 Climbing Indianapolis Center
Sat 09:04:40 AM 38.1869 -85.6497 238° Southwest 378 435 25,100 1,500 Climbing Indianapolis Center
Sat 09:05:40 AM 38.1306 -85.7642 237° Southwest 385 443 26,600 1,400 Climbing Indianapolis Center
Sat 09:06:40 AM 38.0722 -85.8786 239° Southwest 385 443 27,900 1,300 Climbing Indianapolis Center
Sat 09:07:40 AM 38.0178 -85.9928 238° Southwest 385 443 29,200 1,200 Climbing Indianapolis Center
Sat 09:08:40 AM 37.9611 -86.1069 239° Southwest 385 443 30,300 1,200 Climbing Indianapolis Center
Sat 09:09:40 AM 37.8997 -86.2339 237° Southwest 385 443 31,600 2,850 Climbing Indianapolis Center
Sat 09:10:40 AM 37.8408 -86.3475 239° Southwest 385 443 36,000 1,200 Climbing Indianapolis Center
Sat 09:11:40 AM 37.7903 -86.4533 237° Southwest 385 443 34,000 -450 Descending Indianapolis Center
Sat 09:12:40 AM 37.7267 -86.5767 239° Southwest 390 449 35,100 1,000 Climbing Indianapolis Center
Sat 09:13:40 AM 37.6694 -86.6953 237° Southwest 390 449 36,000 450 Climbing Indianapolis Center
Sat 09:14:40 AM 37.6100 -86.8106 253° West 390 449 36,000  Level Indianapolis Center
Sat 09:15:40 AM 37.5767 -86.9481 265° West 396 456 36,000  Level Indianapolis Center
Sat 09:16:40 AM 37.5661 -87.0969 266° West 410 472 36,000  Level Indianapolis Center
Sat 09:17:40 AM 37.5572 -87.2486 257° West 434 499 36,000  Level Indianapolis Center
Sat 09:18:34 AM 37.5372 -87.3600 236° Southwest 415 478 36,000  Level Memphis Center
Sat 09:19:34 AM 37.4775 -87.4719 233° Southwest 391 450 36,000  Level Memphis Center
Sat 09:20:34 AM 37.4092 -87.5867 236° Southwest 410 472 36,000  Level Memphis Center
Sat 09:21:34 AM 37.3453 -87.7064 237° Southwest 421 484 36,000  Level Memphis Center
Sat 09:22:34 AM 37.2753 -87.8442 231° Southwest 426 490 36,000  Level Memphis Center
Sat 09:23:34 AM 37.2025 -87.9583 235° Southwest 431 496 36,000  Level Memphis Center
Sat 09:24:34 AM 37.1381 -88.0750 237° Southwest 424 488 36,000  Level Memphis Center
Sat 09:25:34 AM 37.0736 -88.1989 233° Southwest 424 488 36,000  Level Memphis Center
Sat 09:26:34 AM 37.0047 -88.3150 234° Southwest 429 494 36,000  Level Memphis Center
Sat 09:27:35 AM 36.9397 -88.4283 235° Southwest 424 488 36,000  Level Memphis Center
Sat 09:28:34 AM 36.8728 -88.5467 234° Southwest 424 488 36,000  Level Memphis Center
Sat 09:29:34 AM 36.8036 -88.6650 235° Southwest 424 488 36,000  Level Memphis Center
Sat 09:30:34 AM 36.7364 -88.7828 235° Southwest 424 488 36,000  Level Memphis Center
Sat 09:31:34 AM 36.6692 -88.9006 234° Southwest 424 488 36,000  Level Memphis Center
Sat 09:32:34 AM 36.6017 -89.0156 234° Southwest 424 488 36,000  Level Memphis Center
Sat 09:33:34 AM 36.5339 -89.1303 236° Southwest 424 488 36,000  Level Memphis Center
Sat 09:34:34 AM 36.4664 -89.2525 232° Southwest 419 482 36,000  Level Memphis Center
Sat 09:35:34 AM 36.3983 -89.3592 234° Southwest 419 482 36,000  Level Memphis Center
Sat 09:36:34 AM 36.3244 -89.4864 234° Southwest 441 507 36,000  Level Memphis Center
Sat 09:37:34 AM 36.2583 -89.5978 234° Southwest 433 498 36,000  Level Memphis Center
Sat 09:38:34 AM 36.1922 -89.7089 233° Southwest 421 484 36,000  Level Memphis Center
Sat 09:39:34 AM 36.1242 -89.8225 233° Southwest 415 478 36,000  Level Memphis Center
Sat 09:40:34 AM 36.0578 -89.9333 234° Southwest 415 478 36,000  Level Memphis Center
Sat 09:41:34 AM 35.9914 -90.0467 233° Southwest 415 478 36,000  Level Memphis Center
Sat 09:42:34 AM 35.9250 -90.1569 234° Southwest 415 478 36,000  Level Memphis Center
Sat 09:43:34 AM 35.8561 -90.2725 233° Southwest 415 478 36,000  Level Memphis Center
Sat 09:44:34 AM 35.7875 -90.3853 234° Southwest 415 478 36,000  Level Memphis Center
Sat 09:45:34 AM 35.7206 -90.4978 235° Southwest 415 478 36,000  Level Memphis Center
Sat 09:46:34 AM 35.6622 -90.5997 233° Southwest 410 472 36,000  Level Memphis Center
Sat 09:47:34 AM 35.5867 -90.7219 234° Southwest 410 472 36,000  Level Memphis Center
Sat 09:48:34 AM 35.5175 -90.8392 233° Southwest 410 472 36,000  Level Memphis Center
Sat 09:49:34 AM 35.4483 -90.9508 232° Southwest 416 479 36,000  Level Memphis Center
Sat 09:50:34 AM 35.3789 -91.0600 233° Southwest 410 472 36,000  Level Memphis Center
Sat 09:51:34 AM 35.3136 -91.1661 237° Southwest 410 472 36,000  Level Memphis Center
Sat 09:52:34 AM 35.2544 -91.2775 245° Southwest 410 472 36,000  Level Memphis Center
Sat 09:53:34 AM 35.2075 -91.3989 244° Southwest 405 466 36,000  Level Memphis Center
Sat 09:54:34 AM 35.1583 -91.5228 243° Southwest 400 460 36,000  Level Memphis Center
Sat 09:55:34 AM 35.1072 -91.6467 243° Southwest 405 466 36,000  Level Memphis Center
Sat 09:56:34 AM 35.0578 -91.7675 245° Southwest 405 466 36,000  Level Memphis Center
Sat 09:57:34 AM 35.0106 -91.8883 243° Southwest 405 466 36,000  Level Memphis Center
Sat 09:58:34 AM 34.9611 -92.0042 242° Southwest 400 460 36,000  Level Memphis Center
Sat 09:59:34 AM 34.9117 -92.1172 244° Southwest 393 452 36,000  Level Memphis Center
Sat 10:00:34 AM 34.8683 -92.2275 243° Southwest 381 438 36,000  Level Memphis Center
Sat 10:01:34 AM 34.8183 -92.3453 244° Southwest 381 438 36,000  Level Memphis Center
Sat 10:02:34 AM 34.7706 -92.4656 243° Southwest 394 453 36,000  Level Memphis Center
Sat 10:03:34 AM 34.7206 -92.5831 243° Southwest 394 453 36,000  Level Memphis Center
Sat 10:04:34 AM 34.6703 -92.7006 242° Southwest 394 453 36,000  Level Memphis Center
Sat 10:05:34 AM 34.6200 -92.8178 244° Southwest 394 453 36,000  Level Memphis Center
Sat 10:06:34 AM 34.5719 -92.9350 242° Southwest 394 453 36,000  Level Memphis Center
Sat 10:07:34 AM 34.5192 -93.0542 244° Southwest 394 453 36,000  Level Memphis Center
Sat 10:08:34 AM 34.4708 -93.1736 242° Southwest 400 460 36,000  Level Memphis Center
Sat 10:09:34 AM 34.4267 -93.2756 241° Southwest 400 460 36,000  Level Memphis Center
Sat 10:10:34 AM 34.3761 -93.3869 246° West 394 453 36,000  Level Memphis Center
Sat 10:11:05 AM 34.3489 -93.4594 246° West 386 444 36,000  Level Fort Worth Center
Sat 10:12:05 AM 34.3067 -93.5744 251° West 381 438 36,000  Level Fort Worth Center
Sat 10:13:05 AM 34.2708 -93.6992 249° West 386 444 36,000  Level Fort Worth Center
Sat 10:14:05 AM 34.2306 -93.8239 250° West 393 452 36,000  Level Fort Worth Center
Sat 10:15:05 AM 34.1942 -93.9436 250° West 393 452 36,000  Level Fort Worth Center
Sat 10:16:05 AM 34.1558 -94.0681 250° West 393 452 36,000  Level Fort Worth Center
Sat 10:17:05 AM 34.1194 -94.1872 250° West 393 452 36,000 -450 Level Fort Worth Center
Sat 10:18:05 AM 34.0828 -94.3064 250° West 393 452 35,100 -1,200 Descending Fort Worth Center
Sat 10:19:05 AM 34.0442 -94.4308 248° West 393 452 33,600 -1,500 Descending Fort Worth Center
Sat 10:20:05 AM 34.0031 -94.5550 248° West 399 459 32,100 -1,500 Descending Fort Worth Center
Sat 10:21:05 AM 33.9581 -94.6917 249° West 420 483 30,600 -1,500 Descending Fort Worth Center
Sat 10:22:05 AM 33.9150 -94.8256 248° West 427 491 29,100 -1,500 Descending Fort Worth Center
Sat 10:23:05 AM 33.8719 -94.9569 248° West 432 497 27,600 -1,550 Descending Fort Worth Center
Sat 10:24:05 AM 33.8283 -95.0881 249° West 432 497 26,000 -1,500 Descending Fort Worth Center
Sat 10:25:05 AM 33.7850 -95.2242 250° West 437 503 24,600 -1,000 Descending Fort Worth Center
Sat 10:26:05 AM 33.7456 -95.3578 247° West 437 503 24,000 -300 Descending Fort Worth Center
Sat 10:27:05 AM 33.6994 -95.4861 251° West 432 497 24,000 -150 Level Fort Worth Center
Sat 10:28:05 AM 33.6617 -95.6192 248° West 432 497 23,700 -1,300 Descending Fort Worth Center
Sat 10:29:05 AM 33.6178 -95.7522 248° West 432 497 21,400 -2,350 Descending Fort Worth Center
Sat 10:30:05 AM 33.5756 -95.8803 248° West 427 491 19,000 -2,400 Descending Fort Worth Center
Sat 10:31:05 AM 33.5331 -96.0056 247° West 419 482 16,600 -2,250 Descending Fort Worth Center
Sat 10:32:05 AM 33.4947 -96.1156 255° West 405 466 14,500 -2,111 Descending Fort Worth Center
Sat 10:32:53 AM 33.4731 -96.2119 247° West 351 404 12,800 -2,138 Descending FAA TRACON SMA TRACON (SMA)
Sat 10:33:32 AM 33.4481 -96.2808 248° West 325 374 11,400 -1,367 Descending FAA TRACON SMA TRACON (SMA)
Sat 10:34:12 AM 33.4264 -96.3467 245° Southwest 308 354 11,000 -300 Descending FAA TRACON SMA TRACON (SMA)
Sat 10:34:52 AM 33.4056 -96.4008 228° Southwest 293 337 11,000  Level FAA TRACON SMA TRACON (SMA)
Sat 10:35:33 AM 33.3678 -96.4503 222° Southwest 293 337 11,000  Level FAA TRACON SMA TRACON (SMA)
Sat 10:36:12 AM 33.3261 -96.4950 247° West 291 335 11,000 -380 Level FAA TRACON SMA TRACON (SMA)
Sat 10:36:52 AM 33.3069 -96.5483 258° West 287 330 10,500 -1,350 Descending FAA TRACON SMA TRACON (SMA)
Sat 10:37:32 AM 33.2953 -96.6114 254° West 280 322 9,200 -1,407 Descending FAA TRACON SMA TRACON (SMA)
Sat 10:38:13 AM 33.2806 -96.6711 254° West 276 318 8,600 -963 Descending FAA TRACON SMA TRACON (SMA)
Sat 10:38:53 AM 33.2683 -96.7228 255° West 273 314 7,900 -963 Descending FAA TRACON SMA TRACON (SMA)
Sat 10:39:34 AM 33.2550 -96.7842 254° West 267 307 7,300 -1,050 Descending FAA TRACON SMA TRACON (SMA)
Sat 10:40:13 AM 33.2414 -96.8394 256° West 259 298 6,500 -975 Descending FAA TRACON SMA TRACON (SMA)
Sat 10:40:54 AM 33.2306 -96.8906 251° West 247 284 6,000 -370 Descending FAA TRACON SMA TRACON (SMA)
Sat 10:41:34 AM 33.2172 -96.9375 242° Southwest 226 260 6,000 -375 Level FAA TRACON SMA TRACON (SMA)
Sat 10:42:14 AM 33.1972 -96.9831 207° Southwest 219 252 5,500 -846 Descending FAA TRACON SMA TRACON (SMA)
Sat 10:42:52 AM 33.1672 -97.0014 207° Southwest 202 232 4,900 -923 Descending FAA TRACON SMA TRACON (SMA)
Sat 10:43:32 AM 33.1353 -97.0206 207° Southwest 182 209 4,300 -900 Descending FAA TRACON SMA TRACON (SMA)

Login

Don't have an account? Register now (free) for customized features, flight alerts, and more!